sensor_id;sensor_type;location;lat;lon;timestamp;temperature;humidity
8593;DHT22;4334;49.982;8.398;2023-01-29T00:01:47;1.00;99.90
8593;DHT22;4334;49.982;8.398;2023-01-29T00:04:14;1.00;99.90
8593;DHT22;4334;49.982;8.398;2023-01-29T00:06:40;1.00;99.90
8593;DHT22;4334;49.982;8.398;2023-01-29T00:09:07;1.00;99.90
8593;DHT22;4334;49.982;8.398;2023-01-29T00:11:34;1.00;99.90
8593;DHT22;4334;49.982;8.398;2023-01-29T00:14:01;0.90;99.90
8593;DHT22;4334;49.982;8.398;2023-01-29T00:16:29;1.00;99.90
8593;DHT22;4334;49.982;8.398;2023-01-29T00:18:56;0.90;99.90
8593;DHT22;4334;49.982;8.398;2023-01-29T00:21:23;0.90;99.90
8593;DHT22;4334;49.982;8.398;2023-01-29T00:23:50;0.90;99.90
8593;DHT22;4334;49.982;8.398;2023-01-29T00:26:17;1.00;99.90
8593;DHT22;4334;49.982;8.398;2023-01-29T00:28:43;1.00;99.90
8593;DHT22;4334;49.982;8.398;2023-01-29T00:31:13;1.00;99.90
8593;DHT22;4334;49.982;8.398;2023-01-29T00:33:41;1.00;99.90
8593;DHT22;4334;49.982;8.398;2023-01-29T00:36:11;1.00;99.90
8593;DHT22;4334;49.982;8.398;2023-01-29T00:38:38;0.90;99.90
8593;DHT22;4334;49.982;8.398;2023-01-29T00:41:05;0.90;99.90
8593;DHT22;4334;49.982;8.398;2023-01-29T00:44:05;3.50;99.90
8593;DHT22;4334;49.982;8.398;2023-01-29T00:46:50;1.60;99.90
8593;DHT22;4334;49.982;8.398;2023-01-29T00:49:18;1.00;99.90
8593;DHT22;4334;49.982;8.398;2023-01-29T00:51:45;1.00;99.90
8593;DHT22;4334;49.982;8.398;2023-01-29T00:54:33;1.00;99.90
8593;DHT22;4334;49.982;8.398;2023-01-29T00:57:00;0.90;99.90
8593;DHT22;4334;49.982;8.398;2023-01-29T00:59:26;0.90;99.90
8593;DHT22;4334;49.982;8.398;2023-01-29T01:01:53;0.90;99.90
8593;DHT22;4334;49.982;8.398;2023-01-29T01:04:40;0.90;99.90
8593;DHT22;4334;49.982;8.398;2023-01-29T01:07:06;0.90;99.90
8593;DHT22;4334;49.982;8.398;2023-01-29T01:09:34;0.90;99.90
8593;DHT22;4334;49.982;8.398;2023-01-29T01:12:19;0.80;99.90
8593;DHT22;4334;49.982;8.398;2023-01-29T01:14:46;0.80;99.90
8593;DHT22;4334;49.982;8.398;2023-01-29T01:17:13;0.80;99.90
8593;DHT22;4334;49.982;8.398;2023-01-29T01:19:42;0.80;99.90
8593;DHT22;4334;49.982;8.398;2023-01-29T01:22:09;0.80;99.90
8593;DHT22;4334;49.982;8.398;2023-01-29T01:24:35;0.70;99.90
8593;DHT22;4334;49.982;8.398;2023-01-29T01:27:02;0.70;99.90
8593;DHT22;4334;49.982;8.398;2023-01-29T01:29:29;0.70;99.90
8593;DHT22;4334;49.982;8.398;2023-01-29T01:31:56;4.10;99.90
8593;DHT22;4334;49.982;8.398;2023-01-29T01:34:23;0.70;99.90
8593;DHT22;4334;49.982;8.398;2023-01-29T01:36:52;0.70;99.90
8593;DHT22;4334;49.982;8.398;2023-01-29T01:39:20;0.70;99.90
8593;DHT22;4334;49.982;8.398;2023-01-29T01:41:47;0.70;99.90
8593;DHT22;4334;49.982;8.398;2023-01-29T01:44:50;1.80;99.90
8593;DHT22;4334;49.982;8.398;2023-01-29T01:47:19;0.70;99.90
8593;DHT22;4334;49.982;8.398;2023-01-29T01:49:48;0.60;99.90
8593;DHT22;4334;49.982;8.398;2023-01-29T01:52:16;0.60;99.90
8593;DHT22;4334;49.982;8.398;2023-01-29T01:54:44;0.60;99.90
8593;DHT22;4334;49.982;8.398;2023-01-29T01:57:14;0.60;99.90
8593;DHT22;4334;49.982;8.398;2023-01-29T01:59:53;1.50;99.90
8593;DHT22;4334;49.982;8.398;2023-01-29T02:02:21;0.40;99.90
8593;DHT22;4334;49.982;8.398;2023-01-29T02:05:06;2.70;99.90
8593;DHT22;4334;49.982;8.398;2023-01-29T02:07:53;0.30;99.90
8593;DHT22;4334;49.982;8.398;2023-01-29T02:10:41;0.30;99.90
8593;DHT22;4334;49.982;8.398;2023-01-29T02:13:09;0.30;99.90
8593;DHT22;4334;49.982;8.398;2023-01-29T02:15:37;0.20;99.90
8593;DHT22;4334;49.982;8.398;2023-01-29T02:18:06;0.00;99.90
8593;DHT22;4334;49.982;8.398;2023-01-29T02:20:34;-0.10;99.90
8593;DHT22;4334;49.982;8.398;2023-01-29T02:26:14;-0.10;99.90
8593;DHT22;4334;49.982;8.398;2023-01-29T02:28:49;-0.10;99.90
8593;DHT22;4334;49.982;8.398;2023-01-29T02:31:26;0.00;99.90
8593;DHT22;4334;49.982;8.398;2023-01-29T02:34:05;0.00;99.90
8593;DHT22;4334;49.982;8.398;2023-01-29T02:36:36;0.00;99.90
8593;DHT22;4334;49.982;8.398;2023-01-29T02:39:13;2.30;99.90
8593;DHT22;4334;49.982;8.398;2023-01-29T02:41:43;0.00;99.90
8593;DHT22;4334;49.982;8.398;2023-01-29T02:44:19;0.00;99.90
8593;DHT22;4334;49.982;8.398;2023-01-29T02:46:55;0.10;99.90
8593;DHT22;4334;49.982;8.398;2023-01-29T02:49:26;0.10;99.90
8593;DHT22;4334;49.982;8.398;2023-01-29T02:52:00;0.00;99.90
8593;DHT22;4334;49.982;8.398;2023-01-29T02:54:32;0.10;99.90
8593;DHT22;4334;49.982;8.398;2023-01-29T02:57:06;0.10;99.90
8593;DHT22;4334;49.982;8.398;2023-01-29T02:59:39;0.20;99.90
8593;DHT22;4334;49.982;8.398;2023-01-29T03:02:11;0.40;99.90
8593;DHT22;4334;49.982;8.398;2023-01-29T03:04:43;0.30;99.90
8593;DHT22;4334;49.982;8.398;2023-01-29T03:07:16;0.30;99.90
8593;DHT22;4334;49.982;8.398;2023-01-29T03:10:10;0.30;99.90
8593;DHT22;4334;49.982;8.398;2023-01-29T03:12:40;0.30;99.90
8593;DHT22;4334;49.982;8.398;2023-01-29T03:15:12;3.40;99.90
8593;DHT22;4334;49.982;8.398;2023-01-29T03:17:46;0.30;99.90
8593;DHT22;4334;49.982;8.398;2023-01-29T03:20:16;3.70;99.90
8593;DHT22;4334;49.982;8.398;2023-01-29T03:22:48;0.30;99.90
8593;DHT22;4334;49.982;8.398;2023-01-29T03:25:17;2.50;99.90
8593;DHT22;4334;49.982;8.398;2023-01-29T03:28:04;0.20;99.90
8593;DHT22;4334;49.982;8.398;2023-01-29T03:30:53;0.20;99.90
8593;DHT22;4334;49.982;8.398;2023-01-29T03:33:43;1.40;99.90
8593;DHT22;4334;49.982;8.398;2023-01-29T03:36:15;0.20;99.90
8593;DHT22;4334;49.982;8.398;2023-01-29T03:38:44;0.30;99.90
8593;DHT22;4334;49.982;8.398;2023-01-29T03:41:18;0.20;99.90
8593;DHT22;4334;49.982;8.398;2023-01-29T03:43:53;0.20;99.90
8593;DHT22;4334;49.982;8.398;2023-01-29T03:46:26;0.20;99.90
8593;DHT22;4334;49.982;8.398;2023-01-29T03:49:00;0.30;99.90
8593;DHT22;4334;49.982;8.398;2023-01-29T03:51:36;0.30;99.90
8593;DHT22;4334;49.982;8.398;2023-01-29T03:54:08;0.30;99.90
8593;DHT22;4334;49.982;8.398;2023-01-29T03:56:47;0.20;99.90
8593;DHT22;4334;49.982;8.398;2023-01-29T03:59:22;0.10;99.90
8593;DHT22;4334;49.982;8.398;2023-01-29T04:01:53;0.00;99.90
8593;DHT22;4334;49.982;8.398;2023-01-29T04:04:23;0.00;99.90
8593;DHT22;4334;49.982;8.398;2023-01-29T04:06:51;0.00;99.90
8593;DHT22;4334;49.982;8.398;2023-01-29T04:09:26;0.00;99.90
8593;DHT22;4334;49.982;8.398;2023-01-29T04:11:58;0.00;99.90
8593;DHT22;4334;49.982;8.398;2023-01-29T04:14:27;0.20;99.90
8593;DHT22;4334;49.982;8.398;2023-01-29T04:16:59;-0.10;99.90
8593;DHT22;4334;49.982;8.398;2023-01-29T04:19:27;-0.10;99.90
8593;DHT22;4334;49.982;8.398;2023-01-29T04:22:01;-0.30;99.90
8593;DHT22;4334;49.982;8.398;2023-01-29T04:24:28;-0.40;99.90
8593;DHT22;4334;49.982;8.398;2023-01-29T04:26:59;-0.50;99.90
8593;DHT22;4334;49.982;8.398;2023-01-29T04:29:42;-0.60;99.90
8593;DHT22;4334;49.982;8.398;2023-01-29T04:32:24;-0.60;99.90
8593;DHT22;4334;49.982;8.398;2023-01-29T04:34:59;-0.60;99.90
8593;DHT22;4334;49.982;8.398;2023-01-29T04:37:34;-0.60;99.90
8593;DHT22;4334;49.982;8.398;2023-01-29T04:40:08;-0.80;99.90
8593;DHT22;4334;49.982;8.398;2023-01-29T04:42:43;-0.90;99.90
8593;DHT22;4334;49.982;8.398;2023-01-29T04:45:19;-0.90;99.90
8593;DHT22;4334;49.982;8.398;2023-01-29T04:47:56;-0.90;99.90
8593;DHT22;4334;49.982;8.398;2023-01-29T04:50:28;-0.80;99.90
8593;DHT22;4334;49.982;8.398;2023-01-29T04:53:02;-0.80;99.90
8593;DHT22;4334;49.982;8.398;2023-01-29T04:55:35;0.60;99.90
8593;DHT22;4334;49.982;8.398;2023-01-29T04:58:09;-0.70;99.90
8593;DHT22;4334;49.982;8.398;2023-01-29T05:00:39;-0.70;99.90
8593;DHT22;4334;49.982;8.398;2023-01-29T05:03:09;-0.70;99.90
8593;DHT22;4334;49.982;8.398;2023-01-29T05:05:38;-0.80;99.90
8593;DHT22;4334;49.982;8.398;2023-01-29T05:08:07;-0.70;99.90
8593;DHT22;4334;49.982;8.398;2023-01-29T05:10:34;-0.70;99.90
8593;DHT22;4334;49.982;8.398;2023-01-29T05:13:03;-0.60;99.90
8593;DHT22;4334;49.982;8.398;2023-01-29T05:15:35;-0.60;99.90
8593;DHT22;4334;49.982;8.398;2023-01-29T05:18:03;-0.50;99.90
8593;DHT22;4334;49.982;8.398;2023-01-29T05:20:36;-0.50;99.90
8593;DHT22;4334;49.982;8.398;2023-01-29T05:23:03;-0.60;99.90
8593;DHT22;4334;49.982;8.398;2023-01-29T05:25:32;-0.60;99.90
8593;DHT22;4334;49.982;8.398;2023-01-29T05:27:59;-0.10;99.90
8593;DHT22;4334;49.982;8.398;2023-01-29T05:30:28;-0.50;99.90
8593;DHT22;4334;49.982;8.398;2023-01-29T05:32:55;-0.50;99.90
8593;DHT22;4334;49.982;8.398;2023-01-29T05:35:21;-0.50;99.90
8593;DHT22;4334;49.982;8.398;2023-01-29T05:37:50;-0.50;99.90
8593;DHT22;4334;49.982;8.398;2023-01-29T05:40:17;-0.50;99.90
8593;DHT22;4334;49.982;8.398;2023-01-29T05:42:43;-0.40;99.90
8593;DHT22;4334;49.982;8.398;2023-01-29T05:45:10;0.10;99.90
8593;DHT22;4334;49.982;8.398;2023-01-29T05:47:37;-0.50;99.90
8593;DHT22;4334;49.982;8.398;2023-01-29T05:50:04;-0.50;99.90
8593;DHT22;4334;49.982;8.398;2023-01-29T05:52:31;-0.40;99.90
8593;DHT22;4334;49.982;8.398;2023-01-29T05:54:59;2.70;99.90
8593;DHT22;4334;49.982;8.398;2023-01-29T05:57:26;-0.50;99.90
8593;DHT22;4334;49.982;8.398;2023-01-29T05:59:53;-0.40;99.90
8593;DHT22;4334;49.982;8.398;2023-01-29T06:02:20;-0.50;99.90
8593;DHT22;4334;49.982;8.398;2023-01-29T06:04:47;-0.40;99.90
8593;DHT22;4334;49.982;8.398;2023-01-29T06:07:13;-0.40;99.90
8593;DHT22;4334;49.982;8.398;2023-01-29T06:09:40;-0.40;99.90
8593;DHT22;4334;49.982;8.398;2023-01-29T06:12:08;-0.40;99.90
8593;DHT22;4334;49.982;8.398;2023-01-29T06:14:35;-0.50;99.90
8593;DHT22;4334;49.982;8.398;2023-01-29T06:17:02;-0.40;99.90
8593;DHT22;4334;49.982;8.398;2023-01-29T06:19:29;-0.40;99.90
8593;DHT22;4334;49.982;8.398;2023-01-29T06:21:56;-0.30;99.90
8593;DHT22;4334;49.982;8.398;2023-01-29T06:24:23;-0.30;99.90
8593;DHT22;4334;49.982;8.398;2023-01-29T06:26:49;-0.20;99.90
8593;DHT22;4334;49.982;8.398;2023-01-29T06:29:17;-0.10;99.90
8593;DHT22;4334;49.982;8.398;2023-01-29T06:31:44;-0.10;99.90
8593;DHT22;4334;49.982;8.398;2023-01-29T06:34:11;-0.10;99.90
8593;DHT22;4334;49.982;8.398;2023-01-29T06:36:37;-0.20;99.90
8593;DHT22;4334;49.982;8.398;2023-01-29T06:39:06;-0.20;99.90
8593;DHT22;4334;49.982;8.398;2023-01-29T06:41:33;-0.20;99.90
8593;DHT22;4334;49.982;8.398;2023-01-29T06:44:00;-0.20;99.90
8593;DHT22;4334;49.982;8.398;2023-01-29T06:46:28;-0.20;99.90
8593;DHT22;4334;49.982;8.398;2023-01-29T06:48:57;-0.20;99.90
8593;DHT22;4334;49.982;8.398;2023-01-29T06:51:24;-0.20;99.90
8593;DHT22;4334;49.982;8.398;2023-01-29T06:53:51;-0.20;99.90
8593;DHT22;4334;49.982;8.398;2023-01-29T06:56:20;-0.20;99.90
8593;DHT22;4334;49.982;8.398;2023-01-29T06:58:47;-0.20;99.90
8593;DHT22;4334;49.982;8.398;2023-01-29T07:01:14;-0.20;99.90
8593;DHT22;4334;49.982;8.398;2023-01-29T07:03:43;-0.20;99.90
8593;DHT22;4334;49.982;8.398;2023-01-29T07:06:09;-0.20;99.90
8593;DHT22;4334;49.982;8.398;2023-01-29T07:08:37;-0.20;99.90
8593;DHT22;4334;49.982;8.398;2023-01-29T07:11:04;-0.30;99.90
8593;DHT22;4334;49.982;8.398;2023-01-29T07:13:31;-0.10;99.90
8593;DHT22;4334;49.982;8.398;2023-01-29T07:15:58;-0.20;99.90
8593;DHT22;4334;49.982;8.398;2023-01-29T07:18:26;-0.10;99.90
8593;DHT22;4334;49.982;8.398;2023-01-29T07:20:54;-0.10;99.90
8593;DHT22;4334;49.982;8.398;2023-01-29T07:23:22;0.90;99.90
8593;DHT22;4334;49.982;8.398;2023-01-29T07:25:49;-0.10;99.90
8593;DHT22;4334;49.982;8.398;2023-01-29T07:28:15;0.00;99.90
8593;DHT22;4334;49.982;8.398;2023-01-29T07:30:42;-0.10;99.90
8593;DHT22;4334;49.982;8.398;2023-01-29T07:33:10;0.00;99.90
8593;DHT22;4334;49.982;8.398;2023-01-29T07:35:38;0.00;99.90
8593;DHT22;4334;49.982;8.398;2023-01-29T07:38:06;0.00;99.90
8593;DHT22;4334;49.982;8.398;2023-01-29T07:40:33;0.00;99.90
8593;DHT22;4334;49.982;8.398;2023-01-29T07:43:02;0.00;99.90
8593;DHT22;4334;49.982;8.398;2023-01-29T07:45:29;0.00;99.90
8593;DHT22;4334;49.982;8.398;2023-01-29T07:47:56;0.00;99.90
8593;DHT22;4334;49.982;8.398;2023-01-29T07:50:24;0.00;99.90
8593;DHT22;4334;49.982;8.398;2023-01-29T07:52:53;0.00;99.90
8593;DHT22;4334;49.982;8.398;2023-01-29T07:55:21;0.10;99.90
8593;DHT22;4334;49.982;8.398;2023-01-29T07:57:54;0.10;99.90
8593;DHT22;4334;49.982;8.398;2023-01-29T08:00:22;0.10;99.90
8593;DHT22;4334;49.982;8.398;2023-01-29T08:02:48;0.10;99.90
8593;DHT22;4334;49.982;8.398;2023-01-29T08:05:15;0.10;99.90
8593;DHT22;4334;49.982;8.398;2023-01-29T08:07:42;0.20;99.90
8593;DHT22;4334;49.982;8.398;2023-01-29T08:10:10;3.90;99.90
8593;DHT22;4334;49.982;8.398;2023-01-29T08:12:38;0.40;99.90
8593;DHT22;4334;49.982;8.398;2023-01-29T08:15:05;2.20;99.90
8593;DHT22;4334;49.982;8.398;2023-01-29T08:17:32;0.40;99.90
8593;DHT22;4334;49.982;8.398;2023-01-29T08:19:59;1.00;99.90
8593;DHT22;4334;49.982;8.398;2023-01-29T08:22:26;0.60;99.90
8593;DHT22;4334;49.982;8.398;2023-01-29T08:24:52;0.60;99.90
8593;DHT22;4334;49.982;8.398;2023-01-29T08:27:19;0.60;99.90
8593;DHT22;4334;49.982;8.398;2023-01-29T08:29:47;0.60;99.90
8593;DHT22;4334;49.982;8.398;2023-01-29T08:32:14;0.60;99.90
8593;DHT22;4334;49.982;8.398;2023-01-29T08:34:41;0.60;99.90
8593;DHT22;4334;49.982;8.398;2023-01-29T08:37:07;0.50;99.90
8593;DHT22;4334;49.982;8.398;2023-01-29T08:39:34;0.50;99.90
8593;DHT22;4334;49.982;8.398;2023-01-29T08:42:01;1.20;99.90
8593;DHT22;4334;49.982;8.398;2023-01-29T08:44:28;0.80;99.90
8593;DHT22;4334;49.982;8.398;2023-01-29T08:46:56;0.90;99.90
8593;DHT22;4334;49.982;8.398;2023-01-29T08:49:23;1.00;99.90
8593;DHT22;4334;49.982;8.398;2023-01-29T08:51:50;1.20;99.90
8593;DHT22;4334;49.982;8.398;2023-01-29T08:54:18;1.30;99.90
8593;DHT22;4334;49.982;8.398;2023-01-29T08:56:45;1.40;99.90
8593;DHT22;4334;49.982;8.398;2023-01-29T08:59:11;1.40;99.90
8593;DHT22;4334;49.982;8.398;2023-01-29T09:01:38;1.30;99.90
8593;DHT22;4334;49.982;8.398;2023-01-29T09:04:06;1.20;99.90
8593;DHT22;4334;49.982;8.398;2023-01-29T09:06:33;1.20;99.90
8593;DHT22;4334;49.982;8.398;2023-01-29T09:09:00;1.10;99.90
8593;DHT22;4334;49.982;8.398;2023-01-29T09:11:27;1.10;99.90
8593;DHT22;4334;49.982;8.398;2023-01-29T09:13:54;1.00;99.90
8593;DHT22;4334;49.982;8.398;2023-01-29T09:16:20;3.20;99.90
8593;DHT22;4334;49.982;8.398;2023-01-29T09:18:47;0.90;99.90
8593;DHT22;4334;49.982;8.398;2023-01-29T09:21:15;0.90;99.90
8593;DHT22;4334;49.982;8.398;2023-01-29T09:23:42;0.90;99.90
8593;DHT22;4334;49.982;8.398;2023-01-29T09:26:09;0.90;99.90
8593;DHT22;4334;49.982;8.398;2023-01-29T09:28:35;0.90;99.90
8593;DHT22;4334;49.982;8.398;2023-01-29T09:31:02;0.80;99.90
8593;DHT22;4334;49.982;8.398;2023-01-29T09:33:29;0.90;99.90
8593;DHT22;4334;49.982;8.398;2023-01-29T09:35:57;0.90;99.90
8593;DHT22;4334;49.982;8.398;2023-01-29T09:38:25;2.50;99.90
8593;DHT22;4334;49.982;8.398;2023-01-29T09:40:59;1.00;99.90
8593;DHT22;4334;49.982;8.398;2023-01-29T09:43:39;1.00;99.90
8593;DHT22;4334;49.982;8.398;2023-01-29T09:46:15;1.00;99.90
8593;DHT22;4334;49.982;8.398;2023-01-29T09:48:43;0.80;99.90
8593;DHT22;4334;49.982;8.398;2023-01-29T09:51:22;0.80;99.90
8593;DHT22;4334;49.982;8.398;2023-01-29T09:53:55;0.80;99.90
8593;DHT22;4334;49.982;8.398;2023-01-29T09:56:24;0.90;99.90
8593;DHT22;4334;49.982;8.398;2023-01-29T09:58:56;0.90;99.90
8593;DHT22;4334;49.982;8.398;2023-01-29T10:01:28;1.00;99.90
8593;DHT22;4334;49.982;8.398;2023-01-29T10:04:13;1.00;99.90
8593;DHT22;4334;49.982;8.398;2023-01-29T10:06:55;1.00;99.90
8593;DHT22;4334;49.982;8.398;2023-01-29T10:12:49;1.00;99.90
8593;DHT22;4334;49.982;8.398;2023-01-29T10:15:31;1.10;99.90
8593;DHT22;4334;49.982;8.398;2023-01-29T10:18:15;1.20;99.90
8593;DHT22;4334;49.982;8.398;2023-01-29T10:20:57;1.20;99.90
8593;DHT22;4334;49.982;8.398;2023-01-29T10:23:31;1.20;99.90
8593;DHT22;4334;49.982;8.398;2023-01-29T10:26:00;1.30;99.90
8593;DHT22;4334;49.982;8.398;2023-01-29T10:28:30;1.30;99.90
8593;DHT22;4334;49.982;8.398;2023-01-29T10:31:03;1.20;99.90
8593;DHT22;4334;49.982;8.398;2023-01-29T10:33:37;1.40;99.90
8593;DHT22;4334;49.982;8.398;2023-01-29T10:36:09;1.60;99.90
8593;DHT22;4334;49.982;8.398;2023-01-29T10:38:42;1.80;99.90
8593;DHT22;4334;49.982;8.398;2023-01-29T10:41:41;1.70;99.90
8593;DHT22;4334;49.982;8.398;2023-01-29T10:44:21;1.50;99.90
8593;DHT22;4334;49.982;8.398;2023-01-29T10:47:06;1.30;99.90
8593;DHT22;4334;49.982;8.398;2023-01-29T10:49:54;1.70;99.90
8593;DHT22;4334;49.982;8.398;2023-01-29T10:52:34;2.50;99.90
8593;DHT22;4334;49.982;8.398;2023-01-29T10:55:17;2.10;99.90
8593;DHT22;4334;49.982;8.398;2023-01-29T10:57:54;2.30;99.90
8593;DHT22;4334;49.982;8.398;2023-01-29T11:00:25;2.20;99.90
8593;DHT22;4334;49.982;8.398;2023-01-29T11:02:54;2.30;99.90
8593;DHT22;4334;49.982;8.398;2023-01-29T11:05:25;3.60;99.90
8593;DHT22;4334;49.982;8.398;2023-01-29T11:08:02;2.40;99.90
8593;DHT22;4334;49.982;8.398;2023-01-29T11:10:32;2.40;99.90
8593;DHT22;4334;49.982;8.398;2023-01-29T11:13:02;2.80;99.90
8593;DHT22;4334;49.982;8.398;2023-01-29T11:15:31;6.80;99.90
8593;DHT22;4334;49.982;8.398;2023-01-29T11:18:07;3.20;99.90
8593;DHT22;4334;49.982;8.398;2023-01-29T11:20:38;3.20;99.90
8593;DHT22;4334;49.982;8.398;2023-01-29T11:23:05;3.00;99.90
8593;DHT22;4334;49.982;8.398;2023-01-29T11:25:32;6.40;99.90
8593;DHT22;4334;49.982;8.398;2023-01-29T11:28:01;2.80;99.90
8593;DHT22;4334;49.982;8.398;2023-01-29T11:30:31;2.50;99.90
8593;DHT22;4334;49.982;8.398;2023-01-29T11:33:09;2.30;99.90
8593;DHT22;4334;49.982;8.398;2023-01-29T11:35:37;3.20;99.90
8593;DHT22;4334;49.982;8.398;2023-01-29T11:38:16;2.50;99.90
8593;DHT22;4334;49.982;8.398;2023-01-29T11:40:44;2.80;99.90
8593;DHT22;4334;49.982;8.398;2023-01-29T11:43:18;3.30;99.90
8593;DHT22;4334;49.982;8.398;2023-01-29T11:45:46;3.40;99.90
8593;DHT22;4334;49.982;8.398;2023-01-29T11:48:15;2.90;99.90
8593;DHT22;4334;49.982;8.398;2023-01-29T11:50:49;2.40;99.90
8593;DHT22;4334;49.982;8.398;2023-01-29T11:53:36;2.30;99.90
8593;DHT22;4334;49.982;8.398;2023-01-29T11:56:14;1.70;99.90
8593;DHT22;4334;49.982;8.398;2023-01-29T11:58:44;1.70;99.90
8593;DHT22;4334;49.982;8.398;2023-01-29T12:01:14;1.80;99.90
8593;DHT22;4334;49.982;8.398;2023-01-29T12:03:44;1.90;99.90
8593;DHT22;4334;49.982;8.398;2023-01-29T12:06:19;2.00;99.90
8593;DHT22;4334;49.982;8.398;2023-01-29T12:08:53;1.90;99.90
8593;DHT22;4334;49.982;8.398;2023-01-29T12:11:27;1.80;99.90
8593;DHT22;4334;49.982;8.398;2023-01-29T12:13:57;1.90;99.90
8593;DHT22;4334;49.982;8.398;2023-01-29T12:16:27;2.10;99.90
8593;DHT22;4334;49.982;8.398;2023-01-29T12:19:04;2.30;99.90
8593;DHT22;4334;49.982;8.398;2023-01-29T12:21:35;2.60;99.90
8593;DHT22;4334;49.982;8.398;2023-01-29T12:24:14;2.80;99.90
8593;DHT22;4334;49.982;8.398;2023-01-29T12:26:48;2.80;99.90
8593;DHT22;4334;49.982;8.398;2023-01-29T12:29:29;2.90;99.90
8593;DHT22;4334;49.982;8.398;2023-01-29T12:32:05;2.40;99.90
8593;DHT22;4334;49.982;8.398;2023-01-29T12:34:40;2.10;99.90
8593;DHT22;4334;49.982;8.398;2023-01-29T12:37:15;2.00;99.90
8593;DHT22;4334;49.982;8.398;2023-01-29T12:39:44;2.00;99.90
8593;DHT22;4334;49.982;8.398;2023-01-29T12:42:16;2.00;99.90
8593;DHT22;4334;49.982;8.398;2023-01-29T12:44:47;2.00;99.90
8593;DHT22;4334;49.982;8.398;2023-01-29T12:47:19;2.10;99.90
8593;DHT22;4334;49.982;8.398;2023-01-29T12:49:52;2.10;99.90
8593;DHT22;4334;49.982;8.398;2023-01-29T12:52:23;2.40;99.90
8593;DHT22;4334;49.982;8.398;2023-01-29T12:54:56;2.50;99.90
8593;DHT22;4334;49.982;8.398;2023-01-29T12:57:31;2.30;99.90
8593;DHT22;4334;49.982;8.398;2023-01-29T13:00:05;2.40;99.90
8593;DHT22;4334;49.982;8.398;2023-01-29T13:02:38;2.70;99.90
8593;DHT22;4334;49.982;8.398;2023-01-29T13:05:18;2.70;99.90
8593;DHT22;4334;49.982;8.398;2023-01-29T13:07:48;2.60;99.90
8593;DHT22;4334;49.982;8.398;2023-01-29T13:10:20;2.70;99.90
8593;DHT22;4334;49.982;8.398;2023-01-29T13:12:53;2.50;99.90
8593;DHT22;4334;49.982;8.398;2023-01-29T13:15:28;2.10;99.90
8593;DHT22;4334;49.982;8.398;2023-01-29T13:18:01;2.30;99.90
8593;DHT22;4334;49.982;8.398;2023-01-29T13:20:31;2.30;99.90
8593;DHT22;4334;49.982;8.398;2023-01-29T13:23:05;2.40;99.90
8593;DHT22;4334;49.982;8.398;2023-01-29T13:25:38;2.50;99.90
8593;DHT22;4334;49.982;8.398;2023-01-29T13:28:05;2.40;99.90
8593;DHT22;4334;49.982;8.398;2023-01-29T13:30:35;2.80;99.90
8593;DHT22;4334;49.982;8.398;2023-01-29T13:33:03;3.50;99.90
8593;DHT22;4334;49.982;8.398;2023-01-29T13:35:39;3.50;99.90
8593;DHT22;4334;49.982;8.398;2023-01-29T13:38:21;3.10;99.90
8593;DHT22;4334;49.982;8.398;2023-01-29T13:40:49;3.50;99.90
8593;DHT22;4334;49.982;8.398;2023-01-29T13:43:19;4.00;99.90
8593;DHT22;4334;49.982;8.398;2023-01-29T13:45:50;4.10;99.90
8593;DHT22;4334;49.982;8.398;2023-01-29T13:48:21;4.80;99.90
8593;DHT22;4334;49.982;8.398;2023-01-29T13:50:50;5.10;99.90
8593;DHT22;4334;49.982;8.398;2023-01-29T13:53:21;5.60;99.90
8593;DHT22;4334;49.982;8.398;2023-01-29T13:55:48;5.40;99.90
8593;DHT22;4334;49.982;8.398;2023-01-29T13:58:16;5.00;99.90
8593;DHT22;4334;49.982;8.398;2023-01-29T14:00:53;4.70;99.90
8593;DHT22;4334;49.982;8.398;2023-01-29T14:06:39;4.50;99.90
8593;DHT22;4334;49.982;8.398;2023-01-29T14:12:49;3.50;99.90
8593;DHT22;4334;49.982;8.398;2023-01-29T14:15:27;3.10;99.90
8593;DHT22;4334;49.982;8.398;2023-01-29T14:18:03;2.90;99.90
8593;DHT22;4334;49.982;8.398;2023-01-29T14:20:33;2.50;99.90
8593;DHT22;4334;49.982;8.398;2023-01-29T14:23:02;2.40;99.90
8593;DHT22;4334;49.982;8.398;2023-01-29T14:25:31;2.20;99.90
8593;DHT22;4334;49.982;8.398;2023-01-29T14:28:00;2.20;99.90
8593;DHT22;4334;49.982;8.398;2023-01-29T14:30:29;2.10;99.90
8593;DHT22;4334;49.982;8.398;2023-01-29T14:32:57;2.10;99.90
8593;DHT22;4334;49.982;8.398;2023-01-29T14:35:30;2.10;99.90
8593;DHT22;4334;49.982;8.398;2023-01-29T14:38:01;2.10;99.90
8593;DHT22;4334;49.982;8.398;2023-01-29T14:40:31;2.10;99.90
8593;DHT22;4334;49.982;8.398;2023-01-29T14:43:02;2.00;99.90
8593;DHT22;4334;49.982;8.398;2023-01-29T14:45:32;2.00;99.90
8593;DHT22;4334;49.982;8.398;2023-01-29T14:48:35;1.90;99.90
8593;DHT22;4334;49.982;8.398;2023-01-29T14:51:09;1.90;99.90
8593;DHT22;4334;49.982;8.398;2023-01-29T14:53:44;1.90;99.90
8593;DHT22;4334;49.982;8.398;2023-01-29T14:56:16;1.90;99.90
8593;DHT22;4334;49.982;8.398;2023-01-29T14:58:47;1.90;99.90
8593;DHT22;4334;49.982;8.398;2023-01-29T15:01:18;1.80;99.90
8593;DHT22;4334;49.982;8.398;2023-01-29T15:03:47;1.80;99.90
8593;DHT22;4334;49.982;8.398;2023-01-29T15:06:27;1.80;99.90
8593;DHT22;4334;49.982;8.398;2023-01-29T15:09:03;1.80;99.90
8593;DHT22;4334;49.982;8.398;2023-01-29T15:11:38;1.80;99.90
8593;DHT22;4334;49.982;8.398;2023-01-29T15:14:13;1.80;99.90
8593;DHT22;4334;49.982;8.398;2023-01-29T15:16:49;1.80;99.90
8593;DHT22;4334;49.982;8.398;2023-01-29T15:19:22;1.70;99.90
8593;DHT22;4334;49.982;8.398;2023-01-29T15:22:15;4.70;99.90
8593;DHT22;4334;49.982;8.398;2023-01-29T15:24:44;1.70;99.90
8593;DHT22;4334;49.982;8.398;2023-01-29T15:27:14;1.60;99.90
8593;DHT22;4334;49.982;8.398;2023-01-29T15:29:45;1.60;99.90
8593;DHT22;4334;49.982;8.398;2023-01-29T15:32:15;1.60;99.90
8593;DHT22;4334;49.982;8.398;2023-01-29T15:34:45;1.50;99.90
8593;DHT22;4334;49.982;8.398;2023-01-29T15:37:26;1.50;99.90
8593;DHT22;4334;49.982;8.398;2023-01-29T15:39:53;2.20;99.90
8593;DHT22;4334;49.982;8.398;2023-01-29T15:42:21;1.40;99.90
8593;DHT22;4334;49.982;8.398;2023-01-29T15:44:51;1.30;99.90
8593;DHT22;4334;49.982;8.398;2023-01-29T15:47:21;1.30;99.90
8593;DHT22;4334;49.982;8.398;2023-01-29T15:49:49;1.30;99.90
8593;DHT22;4334;49.982;8.398;2023-01-29T15:52:19;1.20;99.90
8593;DHT22;4334;49.982;8.398;2023-01-29T15:54:48;1.10;99.90
8593;DHT22;4334;49.982;8.398;2023-01-29T15:57:20;4.20;99.90
8593;DHT22;4334;49.982;8.398;2023-01-29T15:59:49;1.00;99.90
8593;DHT22;4334;49.982;8.398;2023-01-29T16:02:22;0.90;99.90
8593;DHT22;4334;49.982;8.398;2023-01-29T16:04:53;0.80;99.90
8593;DHT22;4334;49.982;8.398;2023-01-29T16:07:20;0.80;99.90
8593;DHT22;4334;49.982;8.398;2023-01-29T16:09:49;0.70;99.90
8593;DHT22;4334;49.982;8.398;2023-01-29T16:12:16;0.50;99.90
8593;DHT22;4334;49.982;8.398;2023-01-29T16:14:43;0.40;99.90
8593;DHT22;4334;49.982;8.398;2023-01-29T16:17:24;0.20;99.90
8593;DHT22;4334;49.982;8.398;2023-01-29T16:19:55;0.10;99.90
8593;DHT22;4334;49.982;8.398;2023-01-29T16:22:23;0.00;99.90
8593;DHT22;4334;49.982;8.398;2023-01-29T16:24:53;0.00;99.90
8593;DHT22;4334;49.982;8.398;2023-01-29T16:27:20;0.00;99.90
8593;DHT22;4334;49.982;8.398;2023-01-29T16:29:50;-0.10;99.90
8593;DHT22;4334;49.982;8.398;2023-01-29T16:32:19;-0.10;99.90
8593;DHT22;4334;49.982;8.398;2023-01-29T16:34:46;1.60;99.90
8593;DHT22;4334;49.982;8.398;2023-01-29T16:37:20;-0.20;99.90
8593;DHT22;4334;49.982;8.398;2023-01-29T16:39:48;-0.30;99.90
8593;DHT22;4334;49.982;8.398;2023-01-29T16:42:23;-0.30;99.90
8593;DHT22;4334;49.982;8.398;2023-01-29T16:44:59;-0.30;99.90
8593;DHT22;4334;49.982;8.398;2023-01-29T16:47:29;-0.40;99.90
8593;DHT22;4334;49.982;8.398;2023-01-29T16:49:57;-0.50;99.90
8593;DHT22;4334;49.982;8.398;2023-01-29T16:52:26;-0.50;99.90
8593;DHT22;4334;49.982;8.398;2023-01-29T16:55:18;-0.60;99.90